Time;durP1;ratioP1;P1;durP2;ratioP2;P2;SDS_P1;SDS_P2;PMS_P1;PMS_P2;Temp;Humidity;BMP_temperature;BMP_pressure;BME280_temperature;BME280_humidity;BME280_pressure;Samples;Min_cycle;Max_cycle;Signal;HPM_P1;HPM_P2
2022/05/14 00:01:27;;;;;;;8.40;2.35;;;;;;;13.18;60.93;97189.66;6253952;22;20032;-76
2022/05/14 00:03:55;;;;;;;5.35;1.70;;;;;;;13.12;60.06;97185.97;6275597;22;20077;-78
2022/05/14 00:06:27;;;;;;;3.33;1.73;;;;;;;13.10;65.68;97181.91;6280551;22;20024;-79
2022/05/14 00:09:01;;;;;;;3.70;1.52;;;;;;;13.05;60.94;97185.06;6279876;22;20016;-77
2022/05/14 00:14:14;;;;;;;2.47;1.38;;;;;;;12.91;60.35;97186.72;6256597;22;20352;-78
2022/05/14 00:16:42;;;;;;;6.07;1.48;;;;;;;12.84;60.20;97177.97;6249311;23;20026;-77
2022/05/14 00:19:10;;;;;;;5.18;1.92;;;;;;;12.77;60.32;97185.72;6247860;22;20030;-78
2022/05/14 00:21:38;;;;;;;4.30;1.67;;;;;;;12.75;62.71;97174.63;6247661;22;20030;-77
2022/05/14 00:24:07;;;;;;;2.03;1.50;;;;;;;12.78;60.50;97176.06;6248747;22;20023;-79
2022/05/14 00:26:36;;;;;;;2.75;1.70;;;;;;;12.74;60.59;97172.19;6248100;22;20103;-78
2022/05/14 00:29:04;;;;;;;3.42;1.38;;;;;;;12.67;60.54;97173.91;6248926;22;20020;-78
2022/05/14 00:31:32;;;;;;;5.55;2.42;;;;;;;12.63;60.78;97165.59;6247808;23;20043;-78
2022/05/14 00:34:00;;;;;;;3.90;1.60;;;;;;;12.62;62.46;97163.97;6248688;22;20020;-78
2022/05/14 00:36:28;;;;;;;4.18;1.58;;;;;;;12.64;61.10;97166.41;6250231;23;20103;-78
2022/05/14 00:38:55;;;;;;;5.20;1.85;;;;;;;12.59;60.75;97164.31;6249502;22;20022;-79
2022/05/14 00:41:24;;;;;;;8.57;1.90;;;;;;;12.55;60.73;97157.81;6247784;22;20027;-78
2022/05/14 00:43:54;;;;;;;4.15;1.55;;;;;;;12.51;60.92;97161.81;6248068;22;20024;-76
2022/05/14 00:46:25;;;;;;;7.00;1.77;;;;;;;12.49;60.87;97166.41;6248632;23;20111;-77
2022/05/14 00:48:54;;;;;;;3.63;1.83;;;;;;;12.52;61.81;97160.81;6249610;23;20020;-76
2022/05/14 00:51:27;;;;;;;3.30;1.42;;;;;;;12.54;60.91;97156.22;6247715;22;20024;-77
2022/05/14 00:53:58;;;;;;;5.18;1.90;;;;;;;12.51;60.83;97156.59;6248100;22;20076;-78
2022/05/14 00:56:33;;;;;;;2.15;1.60;;;;;;;12.46;60.73;97164.13;6245493;23;20517;-76
2022/05/14 00:59:06;;;;;;;3.97;1.73;;;;;;;12.41;60.69;97166.50;6246568;23;20020;-80
2022/05/14 01:01:34;;;;;;;3.80;1.75;;;;;;;12.34;60.72;97155.94;6246361;23;20031;-79
2022/05/14 01:04:02;;;;;;;7.75;1.75;;;;;;;12.32;61.09;97150.88;6251726;22;20518;-78
2022/05/14 01:06:31;;;;;;;9.07;1.95;;;;;;;12.30;61.02;97154.66;6249989;23;20051;-78
2022/05/14 01:08:59;;;;;;;3.10;1.77;;;;;;;12.27;60.91;97155.03;6248541;23;20024;-77
2022/05/14 01:11:29;;;;;;;1.88;1.15;;;;;;;12.23;60.92;97154.56;6249084;23;20028;-78
2022/05/14 01:13:57;;;;;;;2.35;1.50;;;;;;;12.18;61.04;97146.44;6250852;22;20068;-79
2022/05/14 01:16:26;;;;;;;4.75;1.73;;;;;;;12.14;60.99;97150.41;6249896;22;20106;-80
2022/05/14 01:18:54;;;;;;;4.22;1.58;;;;;;;12.11;61.08;97145.50;6248500;23;20023;-79
2022/05/14 01:21:32;;;;;;;7.25;1.13;;;;;;;12.10;61.46;97149.13;6249921;22;20020;-79
2022/05/14 01:26:52;;;;;;;4.95;1.77;;;;;;;12.19;63.04;97152.47;6247321;23;20022;-77
2022/05/14 01:29:22;;;;;;;2.80;1.95;;;;;;;12.19;62.05;97147.25;6251861;23;20020;-78
2022/05/14 01:31:52;;;;;;;5.57;1.88;;;;;;;12.12;61.64;97147.16;6247679;23;20099;-77
2022/05/14 01:34:22;;;;;;;2.92;1.65;;;;;;;12.01;61.35;97145.78;6248628;22;20030;-78
2022/05/14 01:36:50;;;;;;;3.60;1.50;;;;;;;11.86;61.72;97155.34;6246615;23;20470;-77
2022/05/14 01:39:18;;;;;;;3.97;1.40;;;;;;;11.75;62.12;97152.16;6247743;22;20032;-79
2022/05/14 01:41:45;;;;;;;4.30;1.45;;;;;;;11.72;62.38;97149.09;6247686;23;20023;-77
2022/05/14 01:44:15;;;;;;;8.20;1.85;;;;;;;11.72;62.33;97152.53;6247974;22;20020;-78
2022/05/14 01:46:42;;;;;;;5.88;1.88;;;;;;;11.73;62.17;97150.72;6247205;23;20048;-78
2022/05/14 01:49:10;;;;;;;2.67;1.20;;;;;;;11.72;62.31;97151.72;6248190;23;20020;-79
2022/05/14 01:51:38;;;;;;;2.08;1.42;;;;;;;11.74;65.57;97149.72;6247797;22;20571;-78
2022/05/14 01:54:06;;;;;;;5.53;1.95;;;;;;;11.81;64.22;97140.19;6247938;22;20018;-78
2022/05/14 01:56:34;;;;;;;4.07;1.85;;;;;;;11.90;67.97;97144.41;6247446;23;20046;-78
2022/05/14 01:59:01;;;;;;;1.85;1.30;;;;;;;12.02;66.23;97149.19;6248442;22;20024;-77
2022/05/14 02:01:33;;;;;;;1.50;1.40;;;;;;;12.00;63.56;97146.75;6247899;22;20472;-78
2022/05/14 02:04:05;;;;;;;3.38;1.52;;;;;;;11.93;62.82;97146.66;6248886;22;20106;-79
2022/05/14 02:06:34;;;;;;;10.23;2.37;;;;;;;11.85;62.60;97146.72;6247685;23;20104;-78
2022/05/14 02:09:02;;;;;;;3.90;1.30;;;;;;;11.79;62.86;97138.75;6247738;22;20640;-77
2022/05/14 02:11:30;;;;;;;3.58;1.33;;;;;;;11.76;62.55;97142.50;6247931;22;20016;-79
2022/05/14 02:13:58;;;;;;;3.55;2.10;;;;;;;11.80;64.83;97138.56;6247544;22;20016;-78
2022/05/14 02:16:25;;;;;;;3.30;1.77;;;;;;;11.88;65.76;97135.91;6247028;23;20020;-81
2022/05/14 02:18:54;;;;;;;4.03;2.10;;;;;;;11.94;64.69;97140.44;6247562;23;20423;-77
2022/05/14 02:21:24;;;;;;;4.03;1.58;;;;;;;11.91;62.87;97135.56;6249257;23;20022;-80
2022/05/14 02:23:53;;;;;;;4.70;1.60;;;;;;;11.84;62.68;97139.84;6249495;22;20024;-78
2022/05/14 02:26:21;;;;;;;2.40;1.58;;;;;;;11.89;67.05;97145.38;6249769;22;20076;-78
2022/05/14 02:28:48;;;;;;;16.67;2.13;;;;;;;11.87;63.50;97136.88;6249264;23;20028;-78
2022/05/14 02:31:16;;;;;;;3.42;1.20;;;;;;;11.81;63.37;97134.97;6244588;22;20020;-78
2022/05/14 02:33:44;;;;;;;3.08;1.30;;;;;;;11.80;63.27;97135.94;6245158;22;20486;-77
2022/05/14 02:36:12;;;;;;;3.30;1.33;;;;;;;11.78;62.48;97139.72;6245452;22;20019;-78
2022/05/14 02:38:41;;;;;;;2.80;1.70;;;;;;;11.69;62.46;97136.38;6245911;22;20020;-78
2022/05/14 02:41:09;;;;;;;9.38;2.08;;;;;;;11.61;62.44;97139.88;6245762;22;20102;-79
2022/05/14 02:43:37;;;;;;;3.47;1.60;;;;;;;11.60;64.99;97142.66;6245372;22;20023;-79
2022/05/14 02:46:06;;;;;;;3.63;1.70;;;;;;;11.61;63.45;97139.03;6244850;23;20442;-82
2022/05/14 02:48:34;;;;;;;4.28;1.50;;;;;;;11.59;62.92;97134.00;6245954;23;20020;-78
2022/05/14 02:51:02;;;;;;;2.58;1.48;;;;;;;11.60;63.29;97142.66;6244755;23;20020;-77
2022/05/14 02:53:31;;;;;;;1.48;1.33;;;;;;;11.56;62.65;97142.19;6245189;22;20658;-78
2022/05/14 02:55:59;;;;;;;4.70;1.67;;;;;;;11.54;62.61;97144.97;6244085;22;20107;-79
2022/05/14 03:01:13;;;;;;;3.83;1.52;;;;;;;11.40;62.40;97143.09;6244934;23;20363;-77
2022/05/14 03:03:42;;;;;;;5.32;2.70;;;;;;;11.36;62.85;97141.81;6246215;22;20020;-77
2022/05/14 03:06:10;;;;;;;3.47;1.30;;;;;;;11.34;62.96;97144.59;6245034;23;20464;-79
2022/05/14 03:08:39;;;;;;;6.00;1.67;;;;;;;11.38;63.79;97146.88;6245209;23;20099;-78
2022/05/14 03:11:07;;;;;;;3.85;1.33;;;;;;;11.42;62.99;97145.56;6244846;23;20023;-76
2022/05/14 03:13:34;;;;;;;3.28;1.45;;;;;;;11.38;62.71;97145.06;6246030;22;20487;-78
2022/05/14 03:16:02;;;;;;;4.82;1.60;;;;;;;11.33;62.66;97140.38;6246621;22;20043;-79
2022/05/14 03:18:29;;;;;;;2.20;1.23;;;;;;;11.31;62.85;97141.53;6246331;23;20042;-78
2022/05/14 03:20:58;;;;;;;3.92;2.22;;;;;;;11.33;63.10;97142.19;6247128;23;20558;-77
2022/05/14 03:23:26;;;;;;;2.20;1.13;;;;;;;11.31;62.68;97136.31;6245860;22;20024;-82
2022/05/14 03:25:55;;;;;;;4.97;1.70;;;;;;;11.29;62.81;97140.91;6244551;23;20075;-83
2022/05/14 03:28:22;;;;;;;2.85;1.38;;;;;;;11.31;62.86;97149.38;6246034;23;20058;-78
2022/05/14 03:30:50;;;;;;;3.38;1.60;;;;;;;11.30;62.79;97150.34;6245270;22;20479;-79
2022/05/14 03:33:18;;;;;;;3.00;1.40;;;;;;;11.26;62.83;97151.66;6246728;22;20094;-79
2022/05/14 03:35:45;;;;;;;1.90;1.25;;;;;;;11.26;62.90;97146.44;6244549;23;20027;-77
2022/05/14 03:38:13;;;;;;;3.95;1.17;;;;;;;11.24;63.31;97153.63;6245647;23;20016;-79
2022/05/14 03:40:41;;;;;;;3.83;1.55;;;;;;;11.31;65.79;97160.63;6245542;22;20020;-77
2022/05/14 03:43:09;;;;;;;2.60;1.40;;;;;;;11.37;65.51;97166.97;6249300;22;20048;-80
2022/05/14 03:45:37;;;;;;;3.05;1.55;;;;;;;11.42;64.93;97164.66;6251952;23;20024;-80
2022/05/14 03:48:05;;;;;;;4.82;1.20;;;;;;;11.42;63.54;97164.66;6267852;23;20020;-78
2022/05/14 03:50:33;;;;;;;2.22;1.35;;;;;;;11.39;63.09;97167.63;6268868;23;20029;-79
2022/05/14 03:53:00;;;;;;;4.18;1.30;;;;;;;11.37;62.93;97168.75;6261457;22;20104;-77
2022/05/14 03:55:28;;;;;;;2.65;1.23;;;;;;;11.37;63.44;97164.38;6248928;23;20024;-77
2022/05/14 03:57:56;;;;;;;5.30;1.30;;;;;;;11.33;62.81;97169.09;6248496;22;20020;-77
2022/05/14 04:00:25;;;;;;;2.25;1.13;;;;;;;11.26;62.84;97167.34;6249264;22;20103;-78
2022/05/14 04:02:52;;;;;;;2.10;1.20;;;;;;;11.21;62.89;97165.25;6248398;22;20027;-76
2022/05/14 04:05:20;;;;;;;3.00;1.33;;;;;;;11.20;63.02;97163.63;6247340;22;20024;-77
2022/05/14 04:07:48;;;;;;;4.35;1.70;;;;;;;11.20;62.91;97160.22;6250422;22;20500;-78
2022/05/14 04:10:16;;;;;;;3.65;1.17;;;;;;;11.19;63.12;97163.78;6252323;23;20022;-77
2022/05/14 04:12:44;;;;;;;2.33;1.30;;;;;;;11.23;65.04;97162.47;6253246;22;20079;-78
2022/05/14 04:15:13;;;;;;;6.82;1.83;;;;;;;11.25;63.50;97163.13;6252616;23;20042;-80
2022/05/14 04:17:43;;;;;;;2.35;1.52;;;;;;;11.22;63.12;97166.88;6251201;23;20518;-77
2022/05/14 04:20:11;;;;;;;4.53;1.40;;;;;;;11.17;62.98;97163.16;6250349;23;20039;-76
2022/05/14 04:22:45;;;;;;;2.42;1.40;;;;;;;11.13;63.74;97160.91;6250535;22;20030;-80
2022/05/14 04:25:15;;;;;;;3.90;1.70;;;;;;;11.10;63.15;97163.84;6254345;22;20103;-85
2022/05/14 04:27:45;;;;;;;6.70;1.55;;;;;;;11.10;63.64;97160.41;6250685;23;20379;-88
2022/05/14 04:30:14;;;;;;;2.70;1.38;;;;;;;11.07;63.14;97163.38;6252300;23;20019;-80
2022/05/14 04:32:43;;;;;;;14.85;1.92;;;;;;;10.98;63.40;97169.63;6250130;22;20464;-78
2022/05/14 04:35:13;;;;;;;6.18;1.38;;;;;;;10.89;63.63;97166.25;6251971;22;20016;-80
2022/05/14 04:37:41;;;;;;;3.55;1.88;;;;;;;10.84;63.65;97163.31;6251301;23;20020;-80
2022/05/14 04:40:11;;;;;;;3.25;2.03;;;;;;;10.88;67.02;97164.59;6252321;22;20100;-79
2022/05/14 04:42:40;;;;;;;5.20;1.88;;;;;;;10.88;64.66;97172.44;6249507;22;20027;-79
2022/05/14 04:45:09;;;;;;;4.88;1.70;;;;;;;10.84;64.41;97171.13;6246227;22;20020;-80
2022/05/14 04:47:41;;;;;;;1.90;1.50;;;;;;;10.84;64.96;97169.31;6245092;23;20035;-77
2022/05/14 04:50:11;;;;;;;2.45;1.45;;;;;;;10.86;64.31;97171.78;6248073;23;20034;-78
2022/05/14 04:52:39;;;;;;;4.65;1.20;;;;;;;10.87;65.79;97168.19;6247137;22;20043;-78
2022/05/14 04:55:08;;;;;;;2.65;1.83;;;;;;;10.86;64.44;97180.41;6247214;23;20118;-78
2022/05/14 04:57:38;;;;;;;3.22;1.60;;;;;;;10.87;64.45;97173.44;6244918;22;20640;-79
2022/05/14 05:00:07;;;;;;;4.53;1.45;;;;;;;10.90;64.24;97178.28;6248406;23;20020;-80
2022/05/14 05:05:21;;;;;;;2.50;1.40;;;;;;;11.13;65.98;97183.59;6250115;23;20403;-78
2022/05/14 05:07:49;;;;;;;3.50;1.33;;;;;;;11.24;68.13;97180.59;6249042;23;20023;-81
2022/05/14 05:10:16;;;;;;;3.20;1.52;;;;;;;11.37;70.83;97187.03;6249246;23;20486;-77
2022/05/14 05:12:44;;;;;;;3.38;2.00;;;;;;;11.42;68.76;97190.78;6250488;22;21355;-80
2022/05/14 05:15:12;;;;;;;5.50;2.55;;;;;;;11.47;68.20;97190.25;6248320;22;20027;-78
2022/05/14 05:17:40;;;;;;;4.97;2.10;;;;;;;11.59;71.67;97185.44;6247056;22;20043;-78
2022/05/14 05:20:10;;;;;;;2.92;1.63;;;;;;;11.73;73.51;97189.91;6247691;22;20026;-79
2022/05/14 05:22:39;;;;;;;2.78;1.35;;;;;;;11.80;69.75;97192.66;6247768;22;20030;-78
2022/05/14 05:25:08;;;;;;;2.15;1.38;;;;;;;11.85;67.59;97198.16;6249191;23;20022;-78
2022/05/14 05:27:36;;;;;;;2.63;1.45;;;;;;;11.88;68.11;97193.44;6250480;22;20058;-78
2022/05/14 05:30:05;;;;;;;3.67;1.30;;;;;;;11.90;65.99;97195.88;6251230;23;20095;-80
2022/05/14 05:32:33;;;;;;;2.13;1.20;;;;;;;11.90;67.07;97199.28;6249257;22;20076;-77
2022/05/14 05:35:00;;;;;;;6.53;1.55;;;;;;;11.95;66.72;97196.16;6247200;23;20044;-77
2022/05/14 05:37:28;;;;;;;3.83;1.85;;;;;;;12.01;69.26;97195.47;6249883;22;20024;-77
2022/05/14 05:39:57;;;;;;;2.55;1.42;;;;;;;12.02;68.30;97198.88;6247918;23;20059;-78
2022/05/14 05:42:24;;;;;;;2.50;1.80;;;;;;;12.05;67.88;97190.69;6248055;22;20356;-77
2022/05/14 05:44:53;;;;;;;5.88;1.70;;;;;;;12.11;69.40;97187.34;6244830;23;20375;-79
2022/05/14 05:47:21;;;;;;;5.85;2.35;;;;;;;12.21;72.23;97190.53;6243070;23;20079;-77
2022/05/14 05:49:48;;;;;;;3.35;1.80;;;;;;;12.29;70.34;97194.91;6244025;22;20648;-76
2022/05/14 05:52:16;;;;;;;3.53;1.58;;;;;;;12.34;71.50;97198.59;6245648;23;20551;-76
2022/05/14 05:57:32;;;;;;;6.05;1.98;;;;;;;12.50;73.53;97188.97;6246743;23;20026;-76
2022/05/14 06:00:00;;;;;;;4.20;1.73;;;;;;;12.52;69.58;97194.81;6249351;23;20020;-77
2022/05/14 06:02:28;;;;;;;5.03;1.70;;;;;;;12.57;72.27;97193.31;6249538;22;20020;-77
2022/05/14 06:04:55;;;;;;;6.00;1.42;;;;;;;12.63;68.07;97190.97;6248817;22;20020;-77
2022/05/14 06:07:23;;;;;;;2.33;1.42;;;;;;;12.64;66.74;97190.78;6248713;23;20476;-78
2022/05/14 06:09:50;;;;;;;4.57;1.40;;;;;;;12.70;67.95;97191.84;6250448;23;20016;-77
2022/05/14 06:12:18;;;;;;;4.18;1.30;;;;;;;12.76;67.77;97186.72;6250911;23;20135;-77
2022/05/14 06:14:47;;;;;;;2.35;1.35;;;;;;;12.89;72.82;97191.31;6250562;22;20051;-79
2022/05/14 06:17:15;;;;;;;2.15;1.50;;;;;;;12.99;70.42;97191.03;6249767;23;20102;-76
2022/05/14 06:19:43;;;;;;;3.95;1.42;;;;;;;13.09;73.27;97196.78;6249884;22;20020;-78
2022/05/14 06:22:10;;;;;;;4.22;1.88;;;;;;;13.22;74.52;97206.63;6252652;22;20026;-76
2022/05/14 06:24:38;;;;;;;4.63;1.83;;;;;;;13.29;71.03;97201.50;6249846;22;20487;-77
2022/05/14 06:27:06;;;;;;;3.35;1.80;;;;;;;13.36;73.60;97202.41;6250351;23;20094;-77
2022/05/14 06:29:34;;;;;;;3.15;1.83;;;;;;;13.46;74.93;97197.66;6250508;22;20411;-77
2022/05/14 06:32:04;;;;;;;4.57;1.25;;;;;;;13.51;69.99;97192.69;6249878;23;20020;-79
2022/05/14 06:34:31;;;;;;;5.13;1.63;;;;;;;13.58;72.53;97190.94;6251068;22;20031;-77
2022/05/14 06:37:00;;;;;;;1.45;1.00;;;;;;;13.63;67.56;97197.44;6250874;23;20071;-80
2022/05/14 06:39:28;;;;;;;2.40;1.20;;;;;;;13.66;64.32;97197.06;6252016;22;20091;-77
2022/05/14 06:41:57;;;;;;;1.83;1.20;;;;;;;13.72;62.95;97193.69;6251774;22;20099;-80
2022/05/14 06:44:24;;;;;;;2.75;1.33;;;;;;;13.81;63.63;97195.19;6250985;22;20095;-79
2022/05/14 06:46:52;;;;;;;3.38;1.40;;;;;;;13.90;61.60;97201.13;6251073;23;20075;-78
2022/05/14 06:49:21;;;;;;;3.35;1.20;;;;;;;13.98;60.80;97201.00;6255913;22;20043;-80
2022/05/14 06:51:49;;;;;;;2.97;1.23;;;;;;;14.07;61.10;97199.88;6254766;23;20075;-78
2022/05/14 06:54:17;;;;;;;5.35;1.27;;;;;;;14.15;60.52;97202.34;6256339;22;20024;-80
2022/05/14 06:56:45;;;;;;;4.03;1.45;;;;;;;14.27;61.07;97194.78;6251310;23;20044;-77
2022/05/14 06:59:14;;;;;;;3.45;1.40;;;;;;;14.37;60.33;97190.00;6251255;23;20027;-77
2022/05/14 07:01:45;;;;;;;2.70;1.42;;;;;;;14.48;60.18;97193.91;6250317;23;20072;-78
2022/05/14 07:07:05;;;;;;;3.03;1.30;;;;;;;14.73;59.31;97189.03;6249699;23;20095;-77
2022/05/14 07:09:34;;;;;;;18.50;2.23;;;;;;;14.86;58.89;97193.56;6252588;23;20090;-76
2022/05/14 07:12:08;;;;;;;2.83;1.52;;;;;;;14.97;59.91;97192.22;6250082;23;20094;-80
2022/05/14 07:14:35;;;;;;;5.40;1.42;;;;;;;15.07;58.13;97195.28;6250111;22;20016;-77
2022/05/14 07:17:04;;;;;;;5.72;1.40;;;;;;;15.18;57.94;97192.09;6250585;23;20183;-78
2022/05/14 07:19:32;;;;;;;1.40;1.30;;;;;;;15.30;57.61;97197.59;6253527;22;20016;-78
2022/05/14 07:22:00;;;;;;;1.38;0.98;;;;;;;15.42;60.72;97192.59;6252657;22;20055;-77
2022/05/14 07:24:30;;;;;;;1.35;0.88;;;;;;;15.53;61.90;97194.66;6252096;22;20024;-77
2022/05/14 07:27:00;;;;;;;0.98;0.75;;;;;;;15.62;59.19;97192.66;6250982;23;20016;-78
2022/05/14 07:29:28;;;;;;;2.65;1.50;;;;;;;15.70;58.06;97189.84;6252361;23;20108;-77
2022/05/14 07:31:56;;;;;;;4.10;1.42;;;;;;;15.81;57.38;97188.47;6253816;23;20030;-78
2022/05/14 07:34:24;;;;;;;1.98;1.05;;;;;;;15.95;59.05;97197.19;6254383;22;20028;-79
2022/05/14 07:36:57;;;;;;;2.97;1.35;;;;;;;16.05;57.00;97194.97;6251565;22;20020;-78
2022/05/14 07:39:28;;;;;;;6.43;1.43;;;;;;;16.17;58.32;97189.91;6253053;23;20089;-77
2022/05/14 07:42:00;;;;;;;5.28;1.10;;;;;;;16.27;56.10;97199.00;6252406;23;20038;-76
2022/05/14 07:44:33;;;;;;;2.47;1.20;;;;;;;16.39;55.76;97190.50;6252722;22;20020;-78
2022/05/14 07:47:01;;;;;;;4.05;0.88;;;;;;;16.51;56.00;97196.78;6250922;23;20392;-78
2022/05/14 07:49:29;;;;;;;3.90;1.40;;;;;;;16.62;56.45;97198.78;6251732;22;20100;-78
2022/05/14 07:51:57;;;;;;;3.63;1.15;;;;;;;16.71;54.81;97193.31;6251496;23;20088;-78
2022/05/14 07:54:25;;;;;;;4.13;1.08;;;;;;;16.78;54.11;97197.53;6251361;22;20071;-78
2022/05/14 07:56:55;;;;;;;3.38;0.82;;;;;;;16.88;54.07;97195.31;6250005;23;20080;-78
2022/05/14 07:59:23;;;;;;;2.75;1.27;;;;;;;16.95;53.30;97197.13;6251384;23;20095;-79
2022/05/14 08:01:51;;;;;;;3.08;1.15;;;;;;;17.03;52.72;97194.25;6252610;22;20026;-78
2022/05/14 08:04:19;;;;;;;2.47;0.98;;;;;;;17.10;55.45;97195.03;6254821;22;20039;-78
2022/05/14 08:06:46;;;;;;;1.90;0.90;;;;;;;17.20;52.32;97198.03;6255725;23;20068;-79
2022/05/14 08:09:14;;;;;;;4.15;1.40;;;;;;;17.30;51.64;97192.31;6256355;23;20480;-80
2022/05/14 08:11:42;;;;;;;4.18;1.02;;;;;;;17.39;50.55;97190.25;6258385;22;20028;-78
2022/05/14 08:14:09;;;;;;;5.25;0.80;;;;;;;17.51;50.68;97193.81;6258374;22;20024;-78
2022/05/14 08:16:38;;;;;;;1.75;0.70;;;;;;;17.60;50.78;97197.84;6264252;23;20020;-82
2022/05/14 08:19:06;;;;;;;2.97;0.73;;;;;;;17.68;50.63;97200.22;6270443;23;20012;-80
2022/05/14 08:24:31;;;;;;;2.72;0.95;;;;;;;17.82;48.07;97197.53;6261628;22;20055;-77
2022/05/14 08:27:02;;;;;;;2.70;0.70;;;;;;;17.89;46.15;97198.31;6255046;23;20052;-78
2022/05/14 08:29:30;;;;;;;2.10;1.13;;;;;;;17.93;47.55;97199.50;6254036;23;20027;-79
2022/05/14 08:31:59;;;;;;;1.27;0.40;;;;;;;17.99;47.99;97198.63;6253768;22;20095;-77
2022/05/14 08:34:27;;;;;;;2.17;0.73;;;;;;;18.06;46.54;97198.59;6253536;22;20028;-79
2022/05/14 08:36:55;;;;;;;2.00;0.60;;;;;;;18.16;47.15;97200.75;6252888;23;20375;-77
2022/05/14 08:39:22;;;;;;;0.93;0.63;;;;;;;18.26;49.10;97214.28;6253539;23;20043;-79
2022/05/14 08:41:53;;;;;;;2.70;0.60;;;;;;;18.33;46.24;97204.47;6254381;23;20020;-79
2022/05/14 08:44:23;;;;;;;1.83;0.45;;;;;;;18.40;45.86;97197.31;6254813;22;20020;-79
2022/05/14 08:46:56;;;;;;;1.80;0.47;;;;;;;18.48;45.30;97199.66;6252494;23;20587;-79
2022/05/14 08:49:33;;;;;;;4.57;1.00;;;;;;;18.57;45.23;97200.19;6253980;23;20027;-77
2022/05/14 08:52:02;;;;;;;3.72;0.60;;;;;;;18.64;44.61;97189.56;6256383;23;20055;-81
2022/05/14 08:54:30;;;;;;;8.45;1.05;;;;;;;18.72;44.70;97189.28;6261103;22;20108;-77
2022/05/14 08:57:06;;;;;;;1.58;0.60;;;;;;;18.80;43.31;97199.59;6259112;23;20094;-77
2022/05/14 08:59:49;;;;;;;2.17;0.57;;;;;;;18.87;46.33;97195.06;6256867;23;20048;-77
2022/05/14 09:02:20;;;;;;;2.75;0.75;;;;;;;18.89;43.33;97190.34;6253025;23;20388;-79
2022/05/14 09:04:50;;;;;;;2.80;0.70;;;;;;;18.93;46.48;97190.72;6251860;22;20337;-78
2022/05/14 09:07:18;;;;;;;2.42;0.50;;;;;;;18.97;44.96;97188.44;6253079;23;20024;-77
2022/05/14 09:09:51;;;;;;;2.58;0.70;;;;;;;19.02;43.02;97189.41;6251797;23;20095;-77
2022/05/14 09:12:21;;;;;;;4.15;0.60;;;;;;;19.07;43.26;97183.47;6251307;22;20351;-75
2022/05/14 09:14:54;;;;;;;2.85;0.77;;;;;;;19.11;44.54;97184.59;6250401;22;20020;-76
2022/05/14 09:17:24;;;;;;;43.58;28.58;;;;;;;19.14;44.62;97197.41;6251069;23;20072;-78
2022/05/14 09:19:54;;;;;;;16.80;11.15;;;;;;;19.18;44.04;97180.06;6251919;23;20103;-81
2022/05/14 09:22:31;;;;;;;3.15;1.10;;;;;;;19.24;43.37;97184.47;6252537;22;20119;-78
2022/05/14 09:25:10;;;;;;;4.57;2.03;;;;;;;19.30;43.87;97183.56;6252248;23;20031;-77
2022/05/14 09:27:43;;;;;;;5.18;0.90;;;;;;;19.39;42.84;97193.84;6254014;23;20364;-77
2022/05/14 09:30:14;;;;;;;3.55;1.20;;;;;;;19.45;47.23;97191.09;6252495;23;20027;-77
2022/05/14 09:32:45;;;;;;;2.28;0.50;;;;;;;19.50;43.47;97187.78;6251899;22;20059;-78
2022/05/14 09:35:18;;;;;;;1.67;0.73;;;;;;;19.56;42.15;97186.88;6251700;23;20020;-77
2022/05/14 09:37:50;;;;;;;1.95;0.70;;;;;;;19.63;45.02;97192.09;6250996;23;20020;-78
2022/05/14 09:40:24;;;;;;;3.30;1.10;;;;;;;19.68;42.75;97182.47;6251988;22;20066;-78
2022/05/14 09:42:54;;;;;;;2.15;1.13;;;;;;;19.78;45.75;97183.78;6250077;22;20024;-77
2022/05/14 09:45:30;;;;;;;1.90;0.80;;;;;;;19.83;42.83;97187.38;6249310;23;20024;-79
2022/05/14 09:48:10;;;;;;;2.45;1.10;;;;;;;19.88;44.85;97179.53;6249478;23;20024;-79
2022/05/14 09:50:42;;;;;;;3.67;1.15;;;;;;;19.94;41.85;97176.00;6249648;23;20095;-77
2022/05/14 09:53:10;;;;;;;2.67;0.80;;;;;;;20.01;41.80;97162.66;6248650;22;20415;-76
2022/05/14 09:55:58;;;;;;;1.30;0.68;;;;;;;20.10;41.52;97166.56;6249894;23;20027;-77
2022/05/14 09:58:33;;;;;;;2.75;0.82;;;;;;;20.17;41.91;97164.63;6250551;23;20026;-76
2022/05/14 10:01:08;;;;;;;1.58;0.70;;;;;;;20.24;43.59;97167.16;6250498;23;20095;-77
2022/05/14 10:03:44;;;;;;;3.20;1.10;;;;;;;20.33;41.47;97170.28;6249203;22;20039;-77
2022/05/14 10:06:29;;;;;;;2.10;0.95;;;;;;;20.38;41.66;97173.06;6248856;23;20099;-77
2022/05/14 10:09:14;;;;;;;6.93;2.35;;;;;;;20.41;40.67;97171.78;6249445;23;20094;-78
2022/05/14 10:11:45;;;;;;;1.02;0.90;;;;;;;20.46;41.20;97166.59;6249461;23;20088;-78
2022/05/14 10:14:28;;;;;;;6.75;1.60;;;;;;;20.52;41.28;97168.31;6249690;22;20051;-77
2022/05/14 10:17:07;;;;;;;5.20;1.08;;;;;;;20.60;45.40;97169.81;6250736;23;20024;-78
2022/05/14 10:20:00;;;;;;;1.92;0.47;;;;;;;20.65;42.32;97168.09;6254165;23;20415;-77
2022/05/14 10:28:24;;;;;;;2.88;1.23;;;;;;;20.77;40.98;97166.25;6248416;23;20055;-78
2022/05/14 10:31:01;;;;;;;2.75;1.17;;;;;;;20.84;40.69;97166.13;6251592;23;20022;-78
2022/05/14 10:33:32;;;;;;;4.38;0.95;;;;;;;20.89;39.49;97163.56;6250133;22;20020;-80
2022/05/14 10:36:06;;;;;;;2.28;0.88;;;;;;;20.95;37.62;97156.53;6252480;23;20047;-79
2022/05/14 10:38:44;;;;;;;2.03;0.63;;;;;;;21.01;37.95;97157.44;6252093;23;20030;-80
2022/05/14 10:41:18;;;;;;;1.00;0.50;;;;;;;21.06;38.04;97149.59;6250100;23;20017;-79
2022/05/14 10:43:53;;;;;;;2.38;1.20;;;;;;;21.12;42.26;97154.78;6253586;22;20416;-80
2022/05/14 10:46:24;;;;;;;2.90;0.70;;;;;;;21.15;39.84;97154.28;6251198;23;20012;-79
2022/05/14 10:48:57;;;;;;;1.33;0.70;;;;;;;21.19;38.28;97157.28;6251317;23;20050;-83
2022/05/14 10:51:28;;;;;;;1.58;0.50;;;;;;;21.23;40.42;97153.13;6251294;23;20016;-78
2022/05/14 10:53:58;;;;;;;3.33;0.85;;;;;;;21.25;38.91;97145.69;6255534;22;20380;-79
2022/05/14 10:56:28;;;;;;;1.17;0.60;;;;;;;21.29;37.65;97141.53;6255340;23;20079;-78
2022/05/14 10:59:02;;;;;;;2.70;0.80;;;;;;;21.35;37.60;97143.25;6251584;23;20103;-76
2022/05/14 11:01:33;;;;;;;2.70;1.60;;;;;;;21.43;38.08;97146.59;6252377;23;20120;-78
2022/05/14 11:04:14;;;;;;;5.43;2.87;;;;;;;21.47;37.22;97134.47;6256401;22;20363;-78
2022/05/14 11:06:56;;;;;;;4.45;1.10;;;;;;;21.52;38.41;97138.03;6252836;23;20258;-76
2022/05/14 11:09:39;;;;;;;3.05;1.52;;;;;;;21.58;37.00;97137.06;6256017;23;20039;-76
2022/05/14 11:12:10;;;;;;;5.20;0.90;;;;;;;21.62;38.48;97129.41;6253863;23;20026;-78
2022/05/14 11:14:41;;;;;;;6.53;0.88;;;;;;;21.67;38.65;97131.34;6253013;22;20095;-81
2022/05/14 11:17:21;;;;;;;6.50;1.23;;;;;;;21.71;38.37;97121.88;6260929;23;20064;-81
2022/05/14 11:19:49;;;;;;;3.00;1.30;;;;;;;21.74;41.53;97127.50;6272167;23;20028;-83
2022/05/14 11:22:26;;;;;;;4.95;0.85;;;;;;;21.76;37.43;97121.97;6266342;22;20016;-81
2022/05/14 11:24:55;;;;;;;7.72;0.88;;;;;;;21.80;37.46;97120.44;6260663;23;20024;-81
2022/05/14 11:27:32;;;;;;;2.10;0.98;;;;;;;21.81;37.21;97128.16;6257534;23;20103;-80
2022/05/14 11:30:03;;;;;;;3.20;0.88;;;;;;;21.81;37.63;97130.81;6258175;23;20048;-79
2022/05/14 11:32:42;;;;;;;2.23;0.80;;;;;;;21.84;37.07;97123.41;6257052;22;20072;-80
2022/05/14 11:35:10;;;;;;;2.40;0.65;;;;;;;21.88;36.56;97122.69;6260346;23;20099;-80
2022/05/14 11:37:41;;;;;;;31.35;19.70;;;;;;;21.91;36.97;97121.38;6257057;23;20050;-84
2022/05/14 11:40:28;;;;;;;3.25;1.63;;;;;;;21.93;36.61;97117.47;6257284;23;20399;-79
2022/05/14 11:43:09;;;;;;;1.10;0.90;;;;;;;21.98;36.62;97122.06;6253876;22;20023;-77
2022/05/14 11:45:41;;;;;;;3.50;1.13;;;;;;;21.99;35.97;97119.13;6256187;23;20020;-81
2022/05/14 11:48:16;;;;;;;1.52;0.70;;;;;;;22.02;36.94;97123.19;6256176;23;20544;-77
2022/05/14 11:50:50;;;;;;;1.77;0.60;;;;;;;22.05;35.08;97116.56;6257916;23;20452;-81
2022/05/14 11:53:26;;;;;;;1.25;0.70;;;;;;;22.07;39.00;97125.91;6255323;22;20023;-79
2022/05/14 11:56:02;;;;;;;1.13;0.65;;;;;;;22.08;36.15;97113.44;6254366;23;20020;-80
2022/05/14 11:58:37;;;;;;;2.30;1.02;;;;;;;22.08;35.47;97108.91;6259388;23;20080;-80
2022/05/14 12:01:13;;;;;;;2.03;0.90;;;;;;;22.10;38.55;97104.16;6260177;23;20096;-80
2022/05/14 12:03:43;;;;;;;1.15;0.65;;;;;;;22.12;37.99;97107.38;6261644;22;20015;-76
2022/05/14 12:06:30;;;;;;;3.60;0.82;;;;;;;22.16;38.56;97111.16;6275977;22;20030;-77
2022/05/14 12:09:12;;;;;;;1.02;0.63;;;;;;;22.18;37.70;97101.09;6276825;22;20030;-77
2022/05/14 12:11:49;;;;;;;1.15;0.77;;;;;;;22.21;40.61;97105.94;6277130;22;20024;-77
2022/05/14 12:14:19;;;;;;;6.88;1.52;;;;;;;22.26;36.13;97093.78;6261875;22;20020;-75